Аэропорт
Kunming Wujiaba International Airport (ZPPP)

 ZPPP / KMG

China
CN-53
Kunming
 24.99240, 102.74400  / 6217 ft

 ZPPP 201600Z 22006MPS CAVOK 10/06 Q1027 NOSIG
 TAF ZPPP 200903Z 2012/2112 23007MPS 9999 SCT026 TX19/2108Z TN05/2023Z TEMPO 2023/2101 1200 BR BKN003

2020 © VATRUS division (Privacy Policy)